Time,TemperatureF,DewpointF,PressureIn,WindDirection,WindDirectionDegrees,WindSpeedMPH,WindSpeedGustMPH,Humidity,HourlyPrecipIn,Conditions,Clouds,dailyrainin,SoftwareType,DateUTC
2013-09-23 00:25:00,50.9,44.0,29.76,NE,45,1.7,-999.0,77,-99.99,,,0.00,Acu-Link.com,2013-09-23 04:25:00,
2013-09-23 00:40:00,50.5,43.6,29.77,ENE,67,5.3,-999.0,77,-99.99,,,0.00,Acu-Link.com,2013-09-23 04:40:00,
2013-09-23 00:55:00,50.2,43.6,29.77,South,180,0.0,-999.0,78,-99.99,,,0.00,Acu-Link.com,2013-09-23 04:55:00,
2013-09-23 01:11:00,49.8,43.6,29.78,SSE,157,1.7,-999.0,79,-99.99,,,0.00,Acu-Link.com,2013-09-23 05:11:00,
2013-09-23 01:26:00,49.3,43.4,29.79,SSE,157,0.0,-999.0,80,-99.99,,,0.00,Acu-Link.com,2013-09-23 05:26:00,
2013-09-23 01:41:00,49.1,43.5,29.79,NNE,22,1.1,-999.0,81,-99.99,,,0.00,Acu-Link.com,2013-09-23 05:41:00,
2013-09-23 01:56:00,48.9,43.3,29.78,SSE,157,1.1,-999.0,81,-99.99,,,0.00,Acu-Link.com,2013-09-23 05:56:00,
2013-09-23 02:12:00,48.7,43.1,29.79,East,90,1.7,-999.0,81,-99.99,,,0.00,Acu-Link.com,2013-09-23 06:12:00,
2013-09-23 02:27:00,48.6,43.7,29.79,ESE,112,0.0,-999.0,83,-99.99,,,0.00,Acu-Link.com,2013-09-23 06:27:00,
2013-09-23 02:42:00,48.2,43.3,29.79,SSE,157,0.0,-999.0,83,-99.99,,,0.00,Acu-Link.com,2013-09-23 06:42:00,
2013-09-23 02:58:00,47.7,42.8,29.79,South,180,0.0,-999.0,83,-99.99,,,0.00,Acu-Link.com,2013-09-23 06:58:00,
2013-09-23 03:13:00,47.3,43.0,29.80,SSW,202,1.7,-999.0,85,-99.99,,,0.00,Acu-Link.com,2013-09-23 07:13:00,
2013-09-23 03:28:00,47.5,42.9,29.80,NW,315,2.7,-999.0,84,-99.99,,,0.00,Acu-Link.com,2013-09-23 07:28:00,
2013-09-23 03:44:00,47.7,43.1,29.80,South,180,1.7,-999.0,84,-99.99,,,0.00,Acu-Link.com,2013-09-23 07:44:00,
2013-09-23 03:59:00,47.5,43.2,29.81,South,180,1.1,-999.0,85,-99.99,,,0.00,Acu-Link.com,2013-09-23 07:59:00,
2013-09-23 04:15:00,47.1,42.5,29.81,SSE,157,2.7,-999.0,84,-99.99,,,0.00,Acu-Link.com,2013-09-23 08:15:00,
2013-09-23 04:30:00,47.3,42.7,29.81,SSW,202,0.0,-999.0,84,-99.99,,,0.00,Acu-Link.com,2013-09-23 08:30:00,
2013-09-23 04:46:00,46.8,42.5,29.81,East,90,0.0,-999.0,85,-99.99,,,0.00,Acu-Link.com,2013-09-23 08:46:00,
2013-09-23 05:01:00,47.3,42.1,29.81,South,180,2.7,-999.0,82,-99.99,,,0.00,Acu-Link.com,2013-09-23 09:01:00,
2013-09-23 05:16:00,47.5,42.0,29.82,SSE,157,1.1,-999.0,81,-99.99,,,0.00,Acu-Link.com,2013-09-23 09:16:00,
2013-09-23 05:31:00,47.8,42.3,29.83,ESE,112,1.7,-999.0,81,-99.99,,,0.00,Acu-Link.com,2013-09-23 09:31:00,
2013-09-23 05:46:00,47.1,42.2,29.84,SSE,157,0.0,-999.0,83,-99.99,,,0.00,Acu-Link.com,2013-09-23 09:46:00,
2013-09-23 06:01:00,45.9,42.0,29.85,ESE,112,0.0,-999.0,86,-99.99,,,0.00,Acu-Link.com,2013-09-23 10:01:00,
2013-09-23 06:17:00,45.1,41.5,29.86,ENE,67,0.0,-999.0,87,-99.99,,,0.00,Acu-Link.com,2013-09-23 10:17:00,
2013-09-23 06:32:00,44.2,40.9,29.86,NNW,337,0.0,-999.0,88,-99.99,,,0.00,Acu-Link.com,2013-09-23 10:32:00,
2013-09-23 06:47:00,44.2,41.2,29.86,South,180,0.0,-999.0,89,-99.99,,,0.00,Acu-Link.com,2013-09-23 10:47:00,
2013-09-23 07:02:00,44.2,41.2,29.88,SE,135,1.1,-999.0,89,-99.99,,,0.00,Acu-Link.com,2013-09-23 11:02:00,
2013-09-23 07:18:00,44.4,41.7,29.87,SSW,202,0.0,-999.0,90,-99.99,,,0.00,Acu-Link.com,2013-09-23 11:18:00,
2013-09-23 07:33:00,45.3,42.3,29.87,ESE,112,0.0,-999.0,89,-99.99,,,0.00,Acu-Link.com,2013-09-23 11:33:00,
2013-09-23 07:48:00,46.4,42.4,29.88,SW,225,1.1,-999.0,86,-99.99,,,0.00,Acu-Link.com,2013-09-23 11:48:00,
2013-09-23 08:03:00,51.4,44.1,29.88,WNW,292,1.7,-999.0,76,-99.99,,,0.00,Acu-Link.com,2013-09-23 12:03:00,
2013-09-23 08:19:00,55.8,45.4,29.88,North,0,3.2,-999.0,68,-99.99,,,0.00,Acu-Link.com,2013-09-23 12:19:00,
2013-09-23 08:34:00,55.9,45.1,29.89,West,270,2.7,-999.0,67,-99.99,,,0.00,Acu-Link.com,2013-09-23 12:34:00,
2013-09-23 08:49:00,54.5,44.9,29.88,SW,225,4.7,-999.0,70,-99.99,,,0.00,Acu-Link.com,2013-09-23 12:49:00,
2013-09-23 09:05:00,55.6,44.8,29.88,NW,315,5.3,-999.0,67,-99.99,,,0.00,Acu-Link.com,2013-09-23 13:05:00,
2013-09-23 09:20:00,55.6,44.4,29.88,SW,225,4.2,-999.0,66,-99.99,,,0.00,Acu-Link.com,2013-09-23 13:20:00,
2013-09-23 09:35:00,57.0,45.4,29.87,WSW,247,3.7,-999.0,65,-99.99,,,0.00,Acu-Link.com,2013-09-23 13:35:00,
2013-09-23 09:50:00,56.8,44.8,29.88,North,0,1.1,-999.0,64,-99.99,,,0.00,Acu-Link.com,2013-09-23 13:50:00,
2013-09-23 10:05:00,57.9,45.0,29.88,WSW,247,4.7,-999.0,62,-99.99,,,0.00,Acu-Link.com,2013-09-23 14:05:00,
2013-09-23 10:20:00,58.5,45.5,29.87,NNE,22,2.7,-999.0,62,-99.99,,,0.00,Acu-Link.com,2013-09-23 14:20:00,
2013-09-23 10:35:00,59.0,45.1,29.87,West,270,5.8,-999.0,60,-99.99,,,0.00,Acu-Link.com,2013-09-23 14:35:00,
2013-09-23 10:51:00,60.3,45.5,29.86,WSW,247,3.7,-999.0,58,-99.99,,,0.00,Acu-Link.com,2013-09-23 14:51:00,
2013-09-23 11:06:00,59.2,45.3,29.87,East,90,1.7,-999.0,60,-99.99,,,0.00,Acu-Link.com,2013-09-23 15:06:00,
2013-09-23 11:21:00,59.7,45.3,29.87,South,180,3.7,-999.0,59,-99.99,,,0.00,Acu-Link.com,2013-09-23 15:21:00,
2013-09-23 11:36:00,60.1,45.3,29.87,ESE,112,3.2,-999.0,58,-99.99,,,0.00,Acu-Link.com,2013-09-23 15:36:00,
2013-09-23 11:52:00,60.4,45.6,29.87,WNW,292,3.2,-999.0,58,-99.99,,,0.00,Acu-Link.com,2013-09-23 15:52:00,
2013-09-23 12:07:00,62.1,46.2,29.86,NW,315,2.7,-999.0,56,-99.99,,,0.00,Acu-Link.com,2013-09-23 16:07:00,
2013-09-23 12:22:00,62.2,46.8,29.86,West,270,3.2,-999.0,57,-99.99,,,0.00,Acu-Link.com,2013-09-23 16:22:00,
2013-09-23 12:37:00,62.1,46.7,29.86,SSE,157,1.7,-999.0,57,-99.99,,,0.00,Acu-Link.com,2013-09-23 16:37:00,
2013-09-23 12:53:00,63.1,46.2,29.85,West,270,8.9,-999.0,54,-99.99,,,0.00,Acu-Link.com,2013-09-23 16:53:00,
2013-09-23 13:08:00,63.1,47.1,29.85,WSW,247,3.7,-999.0,56,-99.99,,,0.00,Acu-Link.com,2013-09-23 17:08:00,
2013-09-23 13:23:00,63.1,46.7,29.85,North,0,8.9,-999.0,55,-99.99,,,0.00,Acu-Link.com,2013-09-23 17:23:00,
2013-09-23 13:38:00,62.8,46.4,29.84,East,90,4.7,-999.0,55,-99.99,,,0.00,Acu-Link.com,2013-09-23 17:38:00,
2013-09-23 13:53:00,63.7,47.2,29.84,SSE,157,4.7,-999.0,55,-99.99,,,0.00,Acu-Link.com,2013-09-23 17:53:00,
2013-09-23 14:08:00,63.3,47.3,29.84,NE,45,5.3,-999.0,56,-99.99,,,0.00,Acu-Link.com,2013-09-23 18:08:00,
2013-09-23 14:24:00,64.9,47.9,29.83,NE,45,3.2,-999.0,54,-99.99,,,0.00,Acu-Link.com,2013-09-23 18:24:00,
2013-09-23 14:39:00,64.6,47.1,29.83,SW,225,2.7,-999.0,53,-99.99,,,0.00,Acu-Link.com,2013-09-23 18:39:00,
2013-09-23 14:54:00,64.9,47.4,29.83,West,270,4.7,-999.0,53,-99.99,,,0.00,Acu-Link.com,2013-09-23 18:54:00,
2013-09-23 15:24:00,64.9,48.3,29.83,NE,45,4.2,-999.0,55,-99.99,,,0.00,Acu-Link.com,2013-09-23 19:24:00,
2013-09-23 15:40:00,64.8,47.8,29.82,SW,225,2.2,-999.0,54,-99.99,,,0.00,Acu-Link.com,2013-09-23 19:40:00,
2013-09-23 15:55:00,64.4,48.4,29.81,South,180,0.0,-999.0,56,-99.99,,,0.00,Acu-Link.com,2013-09-23 19:55:00,
2013-09-23 16:10:00,63.9,47.9,29.82,South,180,4.7,-999.0,56,-99.99,,,0.00,Acu-Link.com,2013-09-23 20:10:00,
2013-09-23 16:25:00,64.0,48.9,29.82,NW,315,2.2,-999.0,58,-99.99,,,0.00,Acu-Link.com,2013-09-23 20:25:00,
2013-09-23 16:41:00,63.7,47.7,29.83,SSW,202,0.0,-999.0,56,-99.99,,,0.00,Acu-Link.com,2013-09-23 20:41:00,
2013-09-23 16:56:00,64.0,48.5,29.84,WSW,247,4.2,-999.0,57,-99.99,,,0.00,Acu-Link.com,2013-09-23 20:56:00,
2013-09-23 17:11:00,63.3,48.3,29.84,WSW,247,2.2,-999.0,58,-99.99,,,0.00,Acu-Link.com,2013-09-23 21:11:00,
2013-09-23 17:26:00,62.4,48.3,29.84,SW,225,0.0,-999.0,60,-99.99,,,0.00,Acu-Link.com,2013-09-23 21:26:00,
2013-09-23 17:41:00,61.2,48.9,29.85,SSW,202,0.0,-999.0,64,-99.99,,,0.00,Acu-Link.com,2013-09-23 21:41:00,
2013-09-23 17:56:00,60.1,49.1,29.85,SSE,157,1.1,-999.0,67,-99.99,,,0.00,Acu-Link.com,2013-09-23 21:56:00,
2013-09-23 18:12:00,58.8,49.0,29.87,SW,225,0.0,-999.0,70,-99.99,,,0.00,Acu-Link.com,2013-09-23 22:12:00,
2013-09-23 18:27:00,57.7,48.7,29.87,SSW,202,0.0,-999.0,72,-99.99,,,0.00,Acu-Link.com,2013-09-23 22:27:00,
2013-09-23 18:42:00,56.1,48.3,29.87,SSW,202,0.0,-999.0,75,-99.99,,,0.00,Acu-Link.com,2013-09-23 22:42:00,
2013-09-23 18:57:00,54.9,47.8,29.87,SSW,202,0.0,-999.0,77,-99.99,,,0.00,Acu-Link.com,2013-09-23 22:57:00,
2013-09-23 19:12:00,53.8,47.4,29.88,SW,225,0.0,-999.0,79,-99.99,,,0.00,Acu-Link.com,2013-09-23 23:12:00,
2013-09-23 19:28:00,52.9,46.6,29.87,South,180,2.2,-999.0,79,-99.99,,,0.00,Acu-Link.com,2013-09-23 23:28:00,
2013-09-23 19:43:00,52.3,46.6,29.88,WNW,292,0.0,-999.0,81,-99.99,,,0.00,Acu-Link.com,2013-09-23 23:43:00,
2013-09-23 19:58:00,51.8,46.5,29.89,West,270,0.0,-999.0,82,-99.99,,,0.00,Acu-Link.com,2013-09-23 23:58:00,
2013-09-23 20:14:00,51.1,46.4,29.89,West,270,0.0,-999.0,84,-99.99,,,0.00,Acu-Link.com,2013-09-24 00:14:00,
2013-09-23 20:29:00,50.2,45.9,29.90,WNW,292,0.0,-999.0,85,-99.99,,,0.00,Acu-Link.com,2013-09-24 00:29:00,
2013-09-23 20:44:00,49.6,45.6,29.90,WNW,292,0.0,-999.0,86,-99.99,,,0.00,Acu-Link.com,2013-09-24 00:44:00,
2013-09-23 21:00:00,49.1,45.1,29.90,NW,315,0.0,-999.0,86,-99.99,,,0.00,Acu-Link.com,2013-09-24 01:00:00,
2013-09-23 21:15:00,48.7,45.0,29.90,NW,315,0.0,-999.0,87,-99.99,,,0.00,Acu-Link.com,2013-09-24 01:15:00,
2013-09-23 21:30:00,48.6,44.9,29.90,NW,315,0.0,-999.0,87,-99.99,,,0.00,Acu-Link.com,2013-09-24 01:30:00,
2013-09-23 21:45:00,47.7,44.3,29.90,WNW,292,1.7,-999.0,88,-99.99,,,0.00,Acu-Link.com,2013-09-24 01:45:00,
2013-09-23 22:00:00,47.8,44.4,29.91,WSW,247,0.0,-999.0,88,-99.99,,,0.00,Acu-Link.com,2013-09-24 02:00:00,
2013-09-23 22:16:00,47.7,44.6,29.92,SSE,157,0.0,-999.0,89,-99.99,,,0.00,Acu-Link.com,2013-09-24 02:16:00,
2013-09-23 22:31:00,47.1,44.0,29.92,NW,315,0.0,-999.0,89,-99.99,,,0.00,Acu-Link.com,2013-09-24 02:31:00,
2013-09-23 22:46:00,47.3,44.2,29.92,SSW,202,0.0,-999.0,89,-99.99,,,0.00,Acu-Link.com,2013-09-24 02:46:00,
2013-09-23 23:01:00,47.3,44.2,29.93,WNW,292,0.0,-999.0,89,-99.99,,,0.00,Acu-Link.com,2013-09-24 03:01:00,
2013-09-23 23:17:00,47.3,43.9,29.93,WSW,247,0.0,-999.0,88,-99.99,,,0.00,Acu-Link.com,2013-09-24 03:17:00,
2013-09-23 23:32:00,47.1,43.7,29.92,WSW,247,2.7,-999.0,88,-99.99,,,0.00,Acu-Link.com,2013-09-24 03:32:00,
2013-09-23 23:47:00,47.1,43.7,29.93,ESE,112,0.0,-999.0,88,-99.99,,,0.00,Acu-Link.com,2013-09-24 03:47:00,